Time;durP1;ratioP1;P1;durP2;ratioP2;P2;SDS_P1;SDS_P2;PMS_P1;PMS_P2;Temp;Humidity;BMP_temperature;BMP_pressure;BME280_temperature;BME280_humidity;BME280_pressure;Samples;Min_cycle;Max_cycle;Signal;HPM_P1;HPM_P2
2023/08/30 00:01:04;;;;;;;;;;;;;;;12.72;89.90;100840.81;5023712;28;19917;-63
2023/08/30 00:03:29;;;;;;;;;;;;;;;12.67;89.92;100831.19;5024584;28;19900;-63
2023/08/30 00:05:55;;;;;;;;;;;;;;;12.64;89.96;100832.84;5023851;28;19940;-63
2023/08/30 00:08:20;;;;;;;;;;;;;;;12.56;89.96;100832.75;5024202;28;19893;-63
2023/08/30 00:10:46;;;;;;;;;;;;;;;12.51;90.21;100832.69;5023160;28;19902;-63
2023/08/30 00:13:11;;;;;;;;;;;;;;;12.50;90.26;100836.13;5022693;28;19905;-63
2023/08/30 00:15:36;;;;;;;;;;;;;;;12.51;90.32;100826.56;5027971;28;20040;-63
2023/08/30 00:18:01;;;;;;;;;;;;;;;12.52;90.19;100829.19;5028309;28;19901;-63
2023/08/30 00:20:26;;;;;;;;;;;;;;;12.55;90.17;100827.50;5028245;28;19909;-63
2023/08/30 00:22:52;;;;;;;;;;;;;;;12.52;90.08;100821.34;5027367;28;20040;-63
2023/08/30 00:25:17;;;;;;;;;;;;;;;12.52;90.00;100821.34;5028389;28;20103;-63
2023/08/30 00:27:42;;;;;;;;;;;;;;;12.50;90.02;100824.81;5028219;28;20131;-63
2023/08/30 00:30:09;;;;;;;;;;;;;;;12.46;89.94;100823.00;5026111;28;19981;-63
2023/08/30 00:32:34;;;;;;;;;;;;;;;12.45;90.02;100826.47;5027713;28;19915;-63
2023/08/30 00:34:59;;;;;;;;;;;;;;;12.44;89.98;100816.84;5027997;28;19933;-63
2023/08/30 00:37:24;;;;;;;;;;;;;;;12.41;89.87;100816.81;5027770;28;20151;-63
2023/08/30 00:39:49;;;;;;;;;;;;;;;12.34;89.91;100819.34;5026646;28;19901;-63
2023/08/30 00:42:14;;;;;;;;;;;;;;;12.29;89.88;100809.66;5027812;28;19928;-63
2023/08/30 00:44:40;;;;;;;;;;;;;;;12.24;89.92;100809.59;5022651;28;20131;-63
2023/08/30 00:47:06;;;;;;;;;;;;;;;12.19;90.03;100811.25;5027785;28;19905;-63
2023/08/30 00:49:31;;;;;;;;;;;;;;;12.15;90.13;100806.81;5026711;28;19972;-63
2023/08/30 00:52:02;;;;;;;;;;;;;;;12.08;90.30;100795.41;5021106;28;20139;-62
2023/08/30 00:54:27;;;;;;;;;;;;;;;12.03;90.27;100788.34;5027925;28;19898;-63
2023/08/30 00:56:54;;;;;;;;;;;;;;;12.00;90.45;100792.66;5027534;28;19909;-63
2023/08/30 00:59:19;;;;;;;;;;;;;;;11.94;90.38;100792.56;5026535;28;19980;-62
2023/08/30 01:01:44;;;;;;;;;;;;;;;11.90;90.58;100793.31;5027845;28;20151;-63
2023/08/30 01:04:09;;;;;;;;;;;;;;;11.84;90.68;100785.38;5027443;28;20063;-62
2023/08/30 01:06:35;;;;;;;;;;;;;;;11.82;90.63;100787.09;5027597;28;19941;-62
2023/08/30 01:09:00;;;;;;;;;;;;;;;11.76;90.79;100784.34;5026660;28;20062;-62
2023/08/30 01:11:29;;;;;;;;;;;;;;;11.70;90.95;100787.75;5021196;28;19912;-62
2023/08/30 01:13:58;;;;;;;;;;;;;;;11.66;90.98;100788.56;5027419;28;19944;-62
2023/08/30 01:16:24;;;;;;;;;;;;;;;11.62;91.05;100790.22;5027330;28;19893;-62
2023/08/30 01:18:51;;;;;;;;;;;;;;;11.59;91.11;100784.94;5025645;28;19905;-62
2023/08/30 01:21:23;;;;;;;;;;;;;;;11.58;91.18;100782.31;5026847;28;19941;-62
2023/08/30 01:23:54;;;;;;;;;;;;;;;11.59;91.38;100778.84;5026868;28;20102;-63
2023/08/30 01:26:22;;;;;;;;;;;;;;;11.64;91.33;100780.69;5027020;28;19905;-62
2023/08/30 01:28:48;;;;;;;;;;;;;;;11.68;91.25;100780.75;5025773;28;20016;-62
2023/08/30 01:31:14;;;;;;;;;;;;;;;11.70;91.19;100772.06;5026981;28;20101;-62
2023/08/30 01:33:40;;;;;;;;;;;;;;;11.71;90.99;100775.59;5026991;28;19901;-62
2023/08/30 01:36:05;;;;;;;;;;;;;;;11.71;91.19;100772.97;5026979;28;19902;-62
2023/08/30 01:38:32;;;;;;;;;;;;;;;11.65;91.34;100779.81;5026188;28;19901;-62
2023/08/30 01:40:59;;;;;;;;;;;;;;;11.61;91.08;100777.16;5022651;28;19906;-62
2023/08/30 01:43:26;;;;;;;;;;;;;;;11.58;91.19;100777.97;5039551;28;19902;-62
2023/08/30 01:45:51;;;;;;;;;;;;;;;11.58;91.17;100777.97;5026810;28;19909;-62
2023/08/30 01:48:17;;;;;;;;;;;;;;;11.58;91.05;100780.56;5026600;28;19902;-62
2023/08/30 01:50:43;;;;;;;;;;;;;;;11.57;91.21;100778.84;5023548;28;19910;-62
2023/08/30 01:53:09;;;;;;;;;;;;;;;11.52;91.10;100775.25;5022985;28;19913;-62
2023/08/30 01:55:36;;;;;;;;;;;;;;;11.51;91.21;100781.31;5026655;28;19948;-62
2023/08/30 01:58:01;;;;;;;;;;;;;;;11.49;91.23;100763.00;5026491;28;19905;-62
2023/08/30 02:00:26;;;;;;;;;;;;;;;11.51;91.39;100770.00;5024726;28;19973;-62
2023/08/30 02:02:51;;;;;;;;;;;;;;;11.50;91.09;100769.13;5026579;28;19905;-62
2023/08/30 02:05:17;;;;;;;;;;;;;;;11.48;91.18;100776.03;5026330;28;19908;-62
2023/08/30 02:07:45;;;;;;;;;;;;;;;11.45;91.25;100776.84;5024877;28;20201;-62
2023/08/30 02:10:11;;;;;;;;;;;;;;;11.44;91.22;100776.81;5026148;28;19911;-62
2023/08/30 02:12:42;;;;;;;;;;;;;;;11.43;91.22;100777.69;5025725;28;20006;-62
2023/08/30 02:15:08;;;;;;;;;;;;;;;11.39;91.39;100771.53;5025803;28;19960;-62
2023/08/30 02:17:34;;;;;;;;;;;;;;;11.35;91.14;100768.84;5026269;28;20155;-62
2023/08/30 02:20:00;;;;;;;;;;;;;;;11.34;91.44;100764.47;5026074;28;19909;-62
2023/08/30 02:22:25;;;;;;;;;;;;;;;11.31;91.26;100758.34;5025441;28;19905;-62
2023/08/30 02:24:50;;;;;;;;;;;;;;;11.30;91.25;100764.41;5025451;28;20083;-62
2023/08/30 02:27:15;;;;;;;;;;;;;;;11.30;91.36;100761.78;5026082;28;19918;-62
2023/08/30 02:29:40;;;;;;;;;;;;;;;11.29;91.40;100760.03;5025784;28;19917;-62
2023/08/30 02:32:06;;;;;;;;;;;;;;;11.28;91.32;100757.38;5025609;28;19948;-62
2023/08/30 02:34:31;;;;;;;;;;;;;;;11.23;91.30;100757.31;5025606;28;20108;-62
2023/08/30 02:36:56;;;;;;;;;;;;;;;11.21;91.31;100752.91;5024910;28;19968;-62
2023/08/30 02:39:22;;;;;;;;;;;;;;;11.18;91.50;100745.03;5025706;28;20025;-62
2023/08/30 02:41:47;;;;;;;;;;;;;;;11.15;91.57;100743.22;5036295;28;19900;-62
2023/08/30 02:44:12;;;;;;;;;;;;;;;11.15;91.90;100745.84;5024584;28;19956;-62
2023/08/30 02:46:37;;;;;;;;;;;;;;;11.12;91.93;100740.56;5025747;28;19902;-62
2023/08/30 02:49:02;;;;;;;;;;;;;;;11.11;91.88;100741.44;5025439;28;20044;-62
2023/08/30 02:51:28;;;;;;;;;;;;;;;11.11;92.24;100744.03;5025559;28;19902;-62
2023/08/30 02:53:53;;;;;;;;;;;;;;;11.09;92.21;100740.50;5024379;28;19913;-62
2023/08/30 02:56:18;;;;;;;;;;;;;;;11.08;92.22;100738.75;5015391;28;19908;-62
2023/08/30 02:58:43;;;;;;;;;;;;;;;11.11;92.50;100733.63;5025554;28;19902;-62
2023/08/30 03:01:09;;;;;;;;;;;;;;;11.11;92.72;100728.41;5025610;28;19906;-62
2023/08/30 03:03:34;;;;;;;;;;;;;;;11.11;92.94;100726.66;5024504;28;19910;-62
2023/08/30 03:05:59;;;;;;;;;;;;;;;11.10;93.13;100724.88;5024162;28;19940;-62
2023/08/30 03:08:24;;;;;;;;;;;;;;;11.09;92.89;100724.88;5021157;28;20143;-62
2023/08/30 03:10:49;;;;;;;;;;;;;;;11.06;93.66;100725.69;5025183;28;19902;-62
2023/08/30 03:13:14;;;;;;;;;;;;;;;11.06;93.90;100724.81;5024744;28;19956;-62
2023/08/30 03:15:40;;;;;;;;;;;;;;;11.06;94.08;100719.59;5025269;28;19913;-62
2023/08/30 03:18:05;;;;;;;;;;;;;;;11.07;94.07;100726.56;5024754;28;19909;-62
2023/08/30 03:20:30;;;;;;;;;;;;;;;11.07;94.66;100721.34;5024920;28;20197;-62
2023/08/30 03:22:55;;;;;;;;;;;;;;;11.09;94.56;100724.88;5025080;28;19952;-62
2023/08/30 03:25:21;;;;;;;;;;;;;;;11.13;94.81;100721.47;5024117;28;19960;-62
2023/08/30 03:27:46;;;;;;;;;;;;;;;11.16;94.80;100716.31;5024467;28;19912;-62
2023/08/30 03:30:11;;;;;;;;;;;;;;;11.19;94.70;100708.53;5024758;28;19906;-62
2023/08/30 03:32:36;;;;;;;;;;;;;;;11.22;94.27;100708.59;5024931;28;20154;-62
2023/08/30 03:35:03;;;;;;;;;;;;;;;11.25;94.73;100698.25;5023414;28;20036;-62
2023/08/30 03:37:28;;;;;;;;;;;;;;;11.26;94.58;100699.97;5024316;28;19937;-62
2023/08/30 03:39:53;;;;;;;;;;;;;;;11.28;94.82;100695.69;5022982;28;19913;-62
2023/08/30 03:42:18;;;;;;;;;;;;;;;11.27;94.80;100683.50;5038399;28;19908;-62
2023/08/30 03:44:44;;;;;;;;;;;;;;;11.27;95.00;100678.28;5024161;28;20094;-62
2023/08/30 03:47:09;;;;;;;;;;;;;;;11.27;95.38;100672.19;5024667;28;19902;-62
2023/08/30 03:49:34;;;;;;;;;;;;;;;11.28;95.84;100663.50;5024577;28;19916;-62
2023/08/30 03:52:00;;;;;;;;;;;;;;;11.27;95.36;100654.78;5023583;28;19913;-62
2023/08/30 03:54:25;;;;;;;;;;;;;;;11.29;95.75;100650.47;5023592;28;20151;-62
2023/08/30 03:56:50;;;;;;;;;;;;;;;11.31;95.85;100650.50;5024461;28;19912;-62
2023/08/30 03:59:15;;;;;;;;;;;;;;;11.34;96.11;100641.84;5024541;28;19908;-62
2023/08/30 04:01:40;;;;;;;;;;;;;;;11.38;96.21;100633.22;5024292;28;19902;-62
2023/08/30 04:04:05;;;;;;;;;;;;;;;11.42;96.83;100635.03;5022800;28;19941;-62
2023/08/30 04:06:31;;;;;;;;;;;;;;;11.43;96.26;100629.84;5024327;28;20131;-62
2023/08/30 04:08:56;;;;;;;;;;;;;;;11.46;96.47;100627.28;5024330;28;20155;-62
2023/08/30 04:11:22;;;;;;;;;;;;;;;11.49;96.60;100616.03;5024415;28;19944;-62
2023/08/30 04:13:48;;;;;;;;;;;;;;;11.51;97.02;100603.00;5023280;28;20117;-62
2023/08/30 04:16:13;;;;;;;;;;;;;;;11.53;96.68;100617.84;5023945;28;20008;-62
2023/08/30 04:18:38;;;;;;;;;;;;;;;11.54;97.29;100619.56;5024319;28;20150;-62
2023/08/30 04:21:03;;;;;;;;;;;;;;;11.57;97.01;100635.31;5024193;28;19905;-62
2023/08/30 04:23:29;;;;;;;;;;;;;;;11.59;96.86;100627.50;5023478;28;19909;-62
2023/08/30 04:25:54;;;;;;;;;;;;;;;11.58;97.95;100621.38;5024545;28;20131;-62
2023/08/30 04:28:20;;;;;;;;;;;;;;;11.59;98.19;100617.94;5024016;28;19912;-62
2023/08/30 04:30:45;;;;;;;;;;;;;;;11.62;99.11;100624.94;5024101;28;20204;-62
2023/08/30 04:33:10;;;;;;;;;;;;;;;11.66;99.38;100619.78;5023642;28;20055;-62
2023/08/30 04:35:36;;;;;;;;;;;;;;;11.69;98.46;100623.28;5024107;28;20157;-62
2023/08/30 04:38:01;;;;;;;;;;;;;;;11.71;98.67;100618.97;5023220;28;19913;-62
2023/08/30 04:40:27;;;;;;;;;;;;;;;11.73;99.38;100614.66;5030594;28;19913;-62
2023/08/30 04:42:52;;;;;;;;;;;;;;;11.76;98.69;100617.28;5029091;28;19912;-62
2023/08/30 04:45:17;;;;;;;;;;;;;;;11.77;98.56;100621.69;5023760;28;19905;-62
2023/08/30 04:47:45;;;;;;;;;;;;;;;11.77;98.73;100612.09;5024152;28;20131;-62
2023/08/30 04:50:10;;;;;;;;;;;;;;;11.80;98.78;100609.56;5023995;28;19906;-62
2023/08/30 04:52:35;;;;;;;;;;;;;;;11.81;98.73;100607.81;5022946;28;20064;-62
2023/08/30 04:55:00;;;;;;;;;;;;;;;11.86;98.01;100605.25;5023971;28;20132;-62
2023/08/30 04:57:26;;;;;;;;;;;;;;;11.87;98.39;100597.44;5023840;28;19908;-62
2023/08/30 04:59:51;;;;;;;;;;;;;;;11.91;99.40;100601.00;5026372;28;20075;-62
2023/08/30 05:02:16;;;;;;;;;;;;;;;11.92;99.46;100598.41;5027227;28;19901;-62
2023/08/30 05:04:42;;;;;;;;;;;;;;;11.94;99.72;100588.88;5026574;28;19913;-62
2023/08/30 05:07:07;;;;;;;;;;;;;;;11.98;98.81;100582.84;5027381;28;20078;-62
2023/08/30 05:09:33;;;;;;;;;;;;;;;12.03;100.00;100587.28;5027364;28;20254;-62
2023/08/30 05:11:58;;;;;;;;;;;;;;;12.05;100.00;100581.22;5027531;28;19902;-62
2023/08/30 05:14:23;;;;;;;;;;;;;;;12.09;100.00;100582.97;5026737;28;19905;-62
2023/08/30 05:16:49;;;;;;;;;;;;;;;12.12;100.00;100577.81;5027337;28;19935;-62
2023/08/30 05:19:16;;;;;;;;;;;;;;;12.17;100.00;100577.88;5026723;28;19905;-62
2023/08/30 05:21:41;;;;;;;;;;;;;;;12.21;100.00;100579.69;5027269;28;19908;-62
2023/08/30 05:24:07;;;;;;;;;;;;;;;12.25;100.00;100578.88;5026665;28;19910;-62
2023/08/30 05:26:32;;;;;;;;;;;;;;;12.29;100.00;100572.78;5027377;28;19901;-62
2023/08/30 05:28:57;;;;;;;;;;;;;;;12.33;100.00;100571.09;5027022;28;19902;-62
2023/08/30 05:31:22;;;;;;;;;;;;;;;12.37;100.00;100572.91;5027132;28;19909;-62
2023/08/30 05:33:47;;;;;;;;;;;;;;;12.41;100.00;100576.41;5026291;28;19909;-62
2023/08/30 05:36:13;;;;;;;;;;;;;;;12.46;100.00;100569.53;5027553;28;20115;-62
2023/08/30 05:38:38;;;;;;;;;;;;;;;12.50;100.00;100568.69;5027331;28;19893;-62
2023/08/30 05:41:03;;;;;;;;;;;;;;;12.53;100.00;100563.50;5040363;28;20071;-62
2023/08/30 05:43:28;;;;;;;;;;;;;;;12.55;100.00;100561.78;5025280;28;19940;-62
2023/08/30 05:45:53;;;;;;;;;;;;;;;12.60;100.00;100560.09;5025841;28;19976;-62
2023/08/30 05:48:18;;;;;;;;;;;;;;;12.62;100.00;100562.72;5026859;28;20251;-62
2023/08/30 05:50:45;;;;;;;;;;;;;;;12.66;100.00;100546.22;5027273;28;19906;-62
2023/08/30 05:53:10;;;;;;;;;;;;;;;12.69;100.00;100538.41;5025950;28;19906;-62
2023/08/30 05:55:35;;;;;;;;;;;;;;;12.73;100.00;100547.13;5026305;28;20139;-63
2023/08/30 05:58:00;;;;;;;;;;;;;;;12.76;100.00;100547.16;5026193;28;19905;-62
2023/08/30 06:00:25;;;;;;;;;;;;;;;12.80;100.00;100542.00;5026784;28;20040;-62
2023/08/30 06:02:51;;;;;;;;;;;;;;;12.83;100.00;100539.41;5025003;28;19906;-62
2023/08/30 06:05:16;;;;;;;;;;;;;;;12.87;100.00;100545.53;5026513;28;19910;-62
2023/08/30 06:07:41;;;;;;;;;;;;;;;12.90;100.00;100550.78;5026391;28;20055;-62
2023/08/30 06:10:07;;;;;;;;;;;;;;;12.93;100.00;100540.34;5024930;28;19910;-62
2023/08/30 06:12:32;;;;;;;;;;;;;;;12.97;100.00;100534.28;5024692;28;19905;-62
2023/08/30 06:14:57;;;;;;;;;;;;;;;13.00;100.00;100536.94;5026416;28;19908;-62
2023/08/30 06:17:22;;;;;;;;;;;;;;;13.04;100.00;100533.47;5026500;28;20024;-63
2023/08/30 06:19:48;;;;;;;;;;;;;;;13.07;100.00;100540.47;5026210;28;19908;-63
2023/08/30 06:22:13;;;;;;;;;;;;;;;13.10;100.00;100545.72;5026017;28;19912;-62
2023/08/30 06:24:39;;;;;;;;;;;;;;;13.12;100.00;100532.66;5024621;28;19956;-62
2023/08/30 06:27:04;;;;;;;;;;;;;;;13.14;100.00;100530.97;5026284;28;19901;-62
2023/08/30 06:29:29;;;;;;;;;;;;;;;13.16;100.00;100531.84;5025927;28;19928;-62
2023/08/30 06:31:54;;;;;;;;;;;;;;;13.17;100.00;100536.22;5026115;28;19901;-62
2023/08/30 06:34:21;;;;;;;;;;;;;;;13.18;100.00;100532.75;5024551;28;21282;-62
2023/08/30 06:36:47;;;;;;;;;;;;;;;13.19;100.00;100529.25;5026000;28;19909;-62
2023/08/30 06:39:12;;;;;;;;;;;;;;;13.20;100.00;100531.84;5029966;28;19909;-62
2023/08/30 06:41:37;;;;;;;;;;;;;;;13.21;100.00;100543.22;5034761;28;19957;-62
2023/08/30 06:44:03;;;;;;;;;;;;;;;13.24;100.00;100548.47;5024327;28;19909;-62
2023/08/30 06:46:29;;;;;;;;;;;;;;;13.26;100.00;100553.72;5025514;28;19916;-61
2023/08/30 06:48:54;;;;;;;;;;;;;;;13.26;100.00;100551.97;5024452;28;19917;-61
2023/08/30 06:51:19;;;;;;;;;;;;;;;13.28;100.00;100546.75;5020115;28;19906;-61
2023/08/30 06:53:46;;;;;;;;;;;;;;;13.29;100.00;100549.38;5023120;28;19928;-61
2023/08/30 06:56:12;;;;;;;;;;;;;;;13.30;100.00;100550.28;5023647;28;19898;-60
2023/08/30 06:58:37;;;;;;;;;;;;;;;13.28;100.00;100558.09;5017082;28;19906;-60
2023/08/30 07:01:03;;;;;;;;;;;;;;;13.28;100.00;100558.09;5023666;28;19968;-60
2023/08/30 07:03:28;;;;;;;;;;;;;;;13.26;100.00;100557.19;5014959;28;19914;-60
2023/08/30 07:05:54;;;;;;;;;;;;;;;13.25;100.00;100555.44;5019337;28;19918;-60
2023/08/30 07:08:19;;;;;;;;;;;;;;;13.22;100.00;100551.09;5015317;28;19906;-60
2023/08/30 07:10:44;;;;;;;;;;;;;;;13.16;100.00;100535.31;5028898;28;19922;-60
2023/08/30 07:13:12;;;;;;;;;;;;;;;13.12;100.00;100530.94;5023990;28;19936;-60
2023/08/30 07:15:39;;;;;;;;;;;;;;;13.07;100.00;100521.31;5022996;28;19906;-60
2023/08/30 07:18:04;;;;;;;;;;;;;;;13.01;100.00;100515.16;5016502;28;20132;-60
2023/08/30 07:20:29;;;;;;;;;;;;;;;12.97;100.00;100512.50;5020692;28;19918;-60
2023/08/30 07:22:55;;;;;;;;;;;;;;;12.94;100.00;100504.63;5023993;28;20159;-60
2023/08/30 07:25:20;;;;;;;;;;;;;;;12.90;100.00;100503.72;5024632;28;19906;-60
2023/08/30 07:27:45;;;;;;;;;;;;;;;12.90;100.00;100506.31;5023077;28;19936;-60
2023/08/30 07:30:10;;;;;;;;;;;;;;;12.88;100.00;100495.00;5024503;28;19906;-60
2023/08/30 07:32:37;;;;;;;;;;;;;;;12.82;100.00;100502.78;5022676;28;19924;-60
2023/08/30 07:35:03;;;;;;;;;;;;;;;12.83;100.00;100500.19;5024214;28;20143;-60
2023/08/30 07:37:28;;;;;;;;;;;;;;;12.83;100.00;100496.69;5027495;28;19927;-60
2023/08/30 07:39:53;;;;;;;;;;;;;;;12.83;100.00;100492.34;5023916;28;19948;-60
2023/08/30 07:42:19;;;;;;;;;;;;;;;12.83;100.00;100496.69;5024700;28;19980;-60
2023/08/30 07:44:45;;;;;;;;;;;;;;;12.85;100.00;100489.75;5022365;28;20051;-60
2023/08/30 07:47:10;;;;;;;;;;;;;;;12.86;100.00;100484.53;5015948;28;19917;-60
2023/08/30 07:49:35;;;;;;;;;;;;;;;12.88;100.00;100481.91;5007846;28;20281;-60
2023/08/30 07:52:00;;;;;;;;;;;;;;;12.88;100.00;100479.31;5024266;28;20222;-61
2023/08/30 07:54:25;;;;;;;;;;;;;;;12.88;100.00;100487.16;5024426;28;20318;-60
2023/08/30 07:56:51;;;;;;;;;;;;;;;12.85;100.00;100476.66;5025632;28;20340;-60
2023/08/30 07:59:16;;;;;;;;;;;;;;;12.85;100.00;100482.75;5018355;28;20147;-60
2023/08/30 08:01:41;;;;;;;;;;;;;;;12.86;100.00;100481.91;5019315;28;20027;-60
2023/08/30 08:04:06;;;;;;;;;;;;;;;12.89;100.00;100473.22;5021120;28;19902;-60
2023/08/30 08:06:31;;;;;;;;;;;;;;;12.89;100.00;100486.28;5028914;28;19967;-60
2023/08/30 08:08:57;;;;;;;;;;;;;;;12.92;100.00;100483.69;5023913;28;19905;-60
2023/08/30 08:11:22;;;;;;;;;;;;;;;12.95;100.00;100482.88;5027704;28;20118;-60
2023/08/30 08:13:47;;;;;;;;;;;;;;;12.96;100.00;100485.47;5022508;28;19955;-60
2023/08/30 08:16:12;;;;;;;;;;;;;;;13.01;100.00;100481.16;5023306;28;20151;-60
2023/08/30 08:18:37;;;;;;;;;;;;;;;13.02;100.00;100480.28;5024494;28;19901;-60
2023/08/30 08:21:04;;;;;;;;;;;;;;;13.02;100.00;100477.69;5025430;28;19944;-60
2023/08/30 08:23:29;;;;;;;;;;;;;;;13.05;100.00;100484.69;5023856;28;19910;-60
2023/08/30 08:25:58;;;;;;;;;;;;;;;13.05;100.00;100485.53;5030319;28;20045;-60
2023/08/30 08:28:23;;;;;;;;;;;;;;;13.08;100.00;100478.56;5024007;28;19974;-60
2023/08/30 08:30:50;;;;;;;;;;;;;;;13.09;100.00;100481.19;5022812;28;19909;-60
2023/08/30 08:33:17;;;;;;;;;;;;;;;13.11;100.00;100481.25;5024253;28;19944;-60
2023/08/30 08:35:42;;;;;;;;;;;;;;;13.14;100.00;100482.13;5028021;28;19901;-60
2023/08/30 08:38:07;;;;;;;;;;;;;;;13.15;100.00;100485.59;5028145;28;20155;-60
2023/08/30 08:40:36;;;;;;;;;;;;;;;13.18;100.00;100491.75;5026855;28;19901;-61
2023/08/30 08:43:02;;;;;;;;;;;;;;;13.23;100.00;100481.31;5028204;28;19912;-61
2023/08/30 08:45:28;;;;;;;;;;;;;;;13.29;100.00;100486.56;5026842;28;19968;-61
2023/08/30 08:47:54;;;;;;;;;;;;;;;13.28;100.00;100484.84;5028349;28;20122;-61
2023/08/30 08:50:19;;;;;;;;;;;;;;;13.28;100.00;100487.47;5034308;28;19906;-61
2023/08/30 08:52:45;;;;;;;;;;;;;;;13.28;100.00;100477.00;5034048;28;19929;-61
2023/08/30 08:55:11;;;;;;;;;;;;;;;13.30;100.00;100471.75;5038954;28;20055;-60
2023/08/30 08:57:37;;;;;;;;;;;;;;;13.33;100.00;100475.25;5038809;28;19951;-60
2023/08/30 09:00:03;;;;;;;;;;;;;;;13.34;100.00;100478.78;5031363;28;19905;-61
2023/08/30 09:02:29;;;;;;;;;;;;;;;13.34;100.00;100474.44;5025650;28;21329;-61
2023/08/30 09:04:54;;;;;;;;;;;;;;;13.36;100.00;100477.06;5033695;28;19916;-61
2023/08/30 09:07:19;;;;;;;;;;;;;;;13.39;100.00;100477.94;5036794;28;20038;-60
2023/08/30 09:09:45;;;;;;;;;;;;;;;13.53;100.00;100471.94;5027125;28;19910;-61
2023/08/30 09:12:10;;;;;;;;;;;;;;;13.62;100.00;100473.72;5026896;28;19905;-60
2023/08/30 09:14:35;;;;;;;;;;;;;;;13.71;100.00;100472.00;5018045;28;19976;-61
2023/08/30 09:17:01;;;;;;;;;;;;;;;13.81;100.00;100469.44;5019759;28;19944;-60
2023/08/30 09:19:27;;;;;;;;;;;;;;;13.91;100.00;100474.72;5017389;28;19914;-60
2023/08/30 09:21:52;;;;;;;;;;;;;;;14.11;100.00;100462.53;5019401;28;19929;-60
2023/08/30 09:24:18;;;;;;;;;;;;;;;14.22;100.00;100463.47;5012179;28;19910;-60
2023/08/30 09:26:46;;;;;;;;;;;;;;;14.30;100.00;100473.97;5022103;28;19913;-60
2023/08/30 09:29:11;;;;;;;;;;;;;;;14.35;100.00;100473.13;5026194;28;19933;-59
2023/08/30 09:31:38;;;;;;;;;;;;;;;14.41;100.00;100473.13;5026978;28;20098;-60
2023/08/30 09:34:03;;;;;;;;;;;;;;;14.40;100.00;100476.59;5025028;28;19909;-60
2023/08/30 09:36:38;;;;;;;;;;;;;;;14.42;100.00;100469.63;5025572;28;20029;-60
2023/08/30 09:39:07;;;;;;;;;;;;;;;14.46;100.00;100478.38;5025440;28;20063;-60
2023/08/30 09:41:35;;;;;;;;;;;;;;;14.47;100.00;100474.88;5024872;28;19906;-60
2023/08/30 09:44:06;;;;;;;;;;;;;;;14.52;100.00;100482.75;5027028;28;19905;-59
2023/08/30 09:46:31;;;;;;;;;;;;;;;14.59;100.00;100480.13;5025326;28;19905;-59
2023/08/30 09:48:57;;;;;;;;;;;;;;;14.64;100.00;100476.66;5022981;28;19940;-59
2023/08/30 09:51:23;;;;;;;;;;;;;;;14.66;100.00;100480.19;5025348;28;20177;-60
2023/08/30 09:53:54;;;;;;;;;;;;;;;14.70;100.00;100482.81;5025229;28;19902;-59
2023/08/30 09:56:20;;;;;;;;;;;;;;;14.68;100.00;100476.66;5024319;28;19976;-60
2023/08/30 09:58:46;;;;;;;;;;;;;;;14.77;100.00;100479.31;5023544;28;19905;-59
2023/08/30 10:01:11;;;;;;;;;;;;;;;14.85;100.00;100478.44;5025915;28;19906;-59
2023/08/30 10:03:37;;;;;;;;;;;;;;;14.98;100.00;100472.31;5026740;28;19909;-59
2023/08/30 10:06:05;;;;;;;;;;;;;;;15.18;100.00;100466.16;5024330;28;19912;-59
2023/08/30 10:08:31;;;;;;;;;;;;;;;15.40;100.00;100464.38;5026348;28;20047;-59
2023/08/30 10:10:58;;;;;;;;;;;;;;;15.64;100.00;100466.94;5026779;28;19905;-59
2023/08/30 10:13:24;;;;;;;;;;;;;;;15.83;100.00;100453.78;5024816;28;19905;-59
2023/08/30 10:15:50;;;;;;;;;;;;;;;16.04;100.00;100465.06;5026859;28;20179;-59
2023/08/30 10:18:18;;;;;;;;;;;;;;;16.23;100.00;100458.81;5026313;28;19905;-59
2023/08/30 10:20:45;;;;;;;;;;;;;;;16.38;100.00;100454.34;5024774;28;19955;-59
2023/08/30 10:23:11;;;;;;;;;;;;;;;16.48;100.00;100456.91;5025506;28;19909;-59
2023/08/30 10:25:37;;;;;;;;;;;;;;;16.61;100.00;100455.06;5026020;28;19948;-59
2023/08/30 10:28:02;;;;;;;;;;;;;;;16.69;100.00;100457.63;5026085;28;19894;-59
2023/08/30 10:30:28;;;;;;;;;;;;;;;16.67;100.00;100449.75;5025313;28;19917;-59
2023/08/30 10:32:53;;;;;;;;;;;;;;;16.74;100.00;100447.91;5026237;28;19902;-59
2023/08/30 10:35:18;;;;;;;;;;;;;;;16.84;100.00;100446.09;5023740;28;20151;-59
2023/08/30 10:37:56;;;;;;;;;;;;;;;17.18;100.00;100444.06;5020338;28;19989;-60
2023/08/30 10:40:22;;;;;;;;;;;;;;;17.47;100.00;100442.00;5033175;28;19906;-59
2023/08/30 10:42:58;;;;;;;;;;;;;;;17.64;100.00;100431.25;5025712;28;19908;-59
2023/08/30 10:45:23;;;;;;;;;;;;;;;17.77;100.00;100431.97;5018101;28;20089;-60
2023/08/30 10:47:54;;;;;;;;;;;;;;;17.81;100.00;100431.91;5021211;28;20217;-60
2023/08/30 10:50:27;;;;;;;;;;;;;;;17.99;100.00;100422.94;5018498;28;19918;-60
2023/08/30 10:52:55;;;;;;;;;;;;;;;18.23;100.00;100424.34;5021306;28;19913;-60
2023/08/30 10:55:21;;;;;;;;;;;;;;;18.38;98.22;100435.56;5022473;28;19937;-60
2023/08/30 10:57:57;;;;;;;;;;;;;;;18.36;97.52;100435.56;5023707;28;19901;-60
2023/08/30 11:00:22;;;;;;;;;;;;;;;18.34;97.61;100434.72;5029527;28;20114;-60
2023/08/30 11:02:49;;;;;;;;;;;;;;;18.22;94.28;100427.00;5034709;28;20158;-60
2023/08/30 11:05:15;;;;;;;;;;;;;;;18.07;96.21;100423.69;5032816;28;19933;-59
2023/08/30 11:07:40;;;;;;;;;;;;;;;18.12;96.55;100423.63;5029805;28;20154;-60
2023/08/30 11:10:06;;;;;;;;;;;;;;;18.27;90.53;100435.72;5032543;28;19928;-60
2023/08/30 11:12:31;;;;;;;;;;;;;;;18.22;88.90;100427.00;5028317;28;19906;-60
2023/08/30 11:14:57;;;;;;;;;;;;;;;18.10;89.10;100432.44;5030881;28;19913;-60
2023/08/30 11:17:22;;;;;;;;;;;;;;;17.92;91.97;100436.22;5033192;28;19944;-59
2023/08/30 11:19:51;;;;;;;;;;;;;;;17.85;91.43;100436.25;5033027;28;20034;-59
2023/08/30 11:22:17;;;;;;;;;;;;;;;17.67;90.05;100439.09;5033252;28;19917;-60
2023/08/30 11:24:43;;;;;;;;;;;;;;;17.69;91.06;100440.84;5033970;28;19976;-59
2023/08/30 11:27:09;;;;;;;;;;;;;;;17.86;92.11;100440.63;5029386;28;19905;-60
2023/08/30 11:29:34;;;;;;;;;;;;;;;17.91;90.27;100437.97;5032987;28;19949;-59
2023/08/30 11:31:59;;;;;;;;;;;;;;;17.95;83.15;100450.22;5032233;28;20154;-61
2023/08/30 11:34:25;;;;;;;;;;;;;;;17.54;86.45;100455.09;5014728;28;19910;-60
2023/08/30 11:36:50;;;;;;;;;;;;;;;17.38;87.01;100456.16;5023051;28;19929;-60
2023/08/30 11:39:16;;;;;;;;;;;;;;;17.29;88.01;100448.31;5026477;28;20127;-60
2023/08/30 11:41:42;;;;;;;;;;;;;;;17.46;89.18;100462.19;5021096;28;20155;-60
2023/08/30 11:44:07;;;;;;;;;;;;;;;17.82;86.63;100445.97;5013780;28;19937;-60
2023/08/30 11:46:32;;;;;;;;;;;;;;;18.05;87.41;100445.69;5016915;28;20050;-60
2023/08/30 11:48:58;;;;;;;;;;;;;;;18.24;87.11;100456.84;5016380;28;19913;-60
2023/08/30 11:51:23;;;;;;;;;;;;;;;18.19;85.13;100456.03;5009686;28;19910;-60
2023/08/30 11:53:49;;;;;;;;;;;;;;;18.14;84.43;100457.88;5015465;28;19948;-60
2023/08/30 11:56:15;;;;;;;;;;;;;;;18.14;86.24;100458.75;5017627;28;19910;-60
2023/08/30 11:58:40;;;;;;;;;;;;;;;18.40;89.34;100453.09;5008190;28;19909;-60
2023/08/30 12:01:07;;;;;;;;;;;;;;;18.80;88.21;100454.25;5017609;28;20190;-60
2023/08/30 12:03:32;;;;;;;;;;;;;;;19.02;81.01;100453.91;5021866;28;20064;-60
2023/08/30 12:05:58;;;;;;;;;;;;;;;18.87;83.93;100448.00;5023499;28;19910;-61
2023/08/30 12:08:24;;;;;;;;;;;;;;;18.89;85.91;100458.53;5023176;28;19902;-60
2023/08/30 12:10:49;;;;;;;;;;;;;;;18.85;81.19;100455.03;5023223;28;19980;-60
2023/08/30 12:13:24;;;;;;;;;;;;;;;18.71;82.42;100452.63;5023222;28;19916;-60
2023/08/30 12:15:49;;;;;;;;;;;;;;;18.76;84.54;100449.91;5018068;28;19908;-61
2023/08/30 12:18:14;;;;;;;;;;;;;;;18.59;84.94;100463.38;5023460;28;19933;-60
2023/08/30 12:20:51;;;;;;;;;;;;;;;18.49;85.29;100460.00;5023633;28;19902;-61
2023/08/30 12:23:19;;;;;;;;;;;;;;;18.39;83.67;100463.66;5022389;28;19916;-60
2023/08/30 12:25:56;;;;;;;;;;;;;;;18.27;85.82;100463.88;5023789;28;20032;-61